KHKA/HKA METAR and TAF weather

Enter ICAO airport designator
Station Type Date Time Source
KHKA METAR 2021/03/05 12:53 UTC NOAA

KHKA 051253Z AUTO 05009KT 10SM CLR 07/00 A3018 RMK AO2 SLP221 T00670000 $


Station Type Date Time Source
KHKA Decoded METAR 2021/03/05 12:53 UTC NOAA

BLYTHEVILLE MUNICIPAL AIRPORT , AR, United States (KHKA) 35-56N 89-50W 78M
Mar 05, 2021 - 07:53 AM EST / 2021.03.05 1253 UTC
Wind: from the NE (050 degrees) at 10 MPH (9 KT):0
Visibility: 10 mile(s):0
Sky conditions: clear
Temperature: 44.1 F (6.7 C)
Dew Point: 32.0 F (0.0 C)
Relative Humidity: 62%
Pressure (altimeter): 30.18 in. Hg (1022 hPa)
ob: KHKA 051253Z AUTO 05009KT 10SM CLR 07/00 A3018 RMK AO2 SLP221 T00670000
cycle: 13

Station Type Date Time Source
KHKA TAF UTC NOAA

Error!

Example: see airport list